Time;durP1;ratioP1;P1;durP2;ratioP2;P2;SDS_P1;SDS_P2;PMS_P1;PMS_P2;Temp;Humidity;BMP_temperature;BMP_pressure;BME280_temperature;BME280_humidity;BME280_pressure;Samples;Min_cycle;Max_cycle;Signal;HPM_P1;HPM_P2
2022/10/05 00:01:27;;;;;;;;;;;14.90;99.90;;;;;;4983171;28;19926;-74
2022/10/05 00:03:57;;;;;;;;;;;15.00;99.90;;;;;;4984981;28;19925;-73
2022/10/05 00:06:24;;;;;;;;;;;14.90;99.90;;;;;;4985717;28;19925;-74
2022/10/05 00:08:50;;;;;;;;;;;14.90;99.90;;;;;;4985035;28;19949;-73
2022/10/05 00:11:16;;;;;;;;;;;14.90;99.90;;;;;;4984274;28;20431;-74
2022/10/05 00:13:42;;;;;;;;;;;14.90;99.90;;;;;;4984303;28;19991;-78
2022/10/05 00:16:12;;;;;;;;;;;14.90;99.90;;;;;;4985474;28;19929;-76
2022/10/05 00:18:38;;;;;;;;;;;14.90;99.90;;;;;;4985075;28;19972;-75
2022/10/05 00:21:33;;;;;;;;;;;14.90;99.90;;;;;;4985249;28;20016;-74
2022/10/05 00:23:59;;;;;;;;;;;14.90;99.90;;;;;;4974340;28;20004;-73
2022/10/05 00:26:26;;;;;;;;;;;14.90;99.90;;;;;;4971413;28;19926;-74
2022/10/05 00:28:52;;;;;;;;;;;15.00;99.90;;;;;;4987861;28;21210;-74
2022/10/05 00:31:19;;;;;;;;;;;14.90;99.90;;;;;;4988751;28;19961;-75
2022/10/05 00:33:45;;;;;;;;;;;14.90;99.90;;;;;;4989026;28;19930;-74
2022/10/05 00:36:10;;;;;;;;;;;14.90;99.90;;;;;;4989018;28;20284;-74
2022/10/05 00:38:36;;;;;;;;;;;14.90;99.90;;;;;;4988344;28;20287;-75
2022/10/05 00:41:08;;;;;;;;;;;14.90;99.90;;;;;;4988595;28;19993;-77
2022/10/05 00:43:42;;;;;;;;;;;14.90;99.90;;;;;;4988494;28;19965;-74
2022/10/05 00:46:15;;;;;;;;;;;14.90;99.90;;;;;;4987598;28;19926;-74
2022/10/05 00:48:46;;;;;;;;;;;14.90;99.90;;;;;;4988293;28;19929;-76
2022/10/05 00:51:23;;;;;;;;;;;15.00;99.90;;;;;;4988712;28;19933;-74
2022/10/05 00:54:01;;;;;;;;;;;14.90;99.90;;;;;;4988223;28;19925;-74
2022/10/05 00:56:39;;;;;;;;;;;15.00;99.90;;;;;;4987176;28;19962;-74
2022/10/05 00:59:14;;;;;;;;;;;14.90;99.90;;;;;;4986303;28;20312;-76
2022/10/05 01:01:42;;;;;;;;;;;14.90;99.90;;;;;;4989152;28;19930;-75
2022/10/05 01:04:20;;;;;;;;;;;14.90;99.90;;;;;;5004236;28;20387;-74
2022/10/05 01:07:01;;;;;;;;;;;14.90;99.90;;;;;;4987066;28;19926;-75
2022/10/05 01:09:36;;;;;;;;;;;14.90;99.90;;;;;;4988733;28;19932;-74
2022/10/05 01:12:02;;;;;;;;;;;14.90;99.90;;;;;;4986758;28;19926;-76
2022/10/05 01:14:38;;;;;;;;;;;14.90;99.90;;;;;;4988025;28;19953;-75
2022/10/05 01:17:06;;;;;;;;;;;14.80;99.90;;;;;;4988527;28;19934;-74
2022/10/05 01:19:38;;;;;;;;;;;14.80;99.90;;;;;;4987659;28;19953;-75
2022/10/05 01:22:24;;;;;;;;;;;14.80;99.90;;;;;;4988048;28;19932;-75
2022/10/05 01:24:49;;;;;;;;;;;14.80;99.90;;;;;;4949952;28;20299;-75
2022/10/05 01:27:29;;;;;;;;;;;14.80;99.90;;;;;;4968666;28;20009;-74
2022/10/05 01:30:02;;;;;;;;;;;14.80;99.90;;;;;;4971372;28;19932;-75
2022/10/05 01:32:34;;;;;;;;;;;14.80;99.90;;;;;;4986921;28;19932;-76
2022/10/05 01:35:06;;;;;;;;;;;14.80;99.90;;;;;;4986965;28;19926;-74
2022/10/05 01:37:46;;;;;;;;;;;14.80;99.90;;;;;;4987543;28;20376;-77
2022/10/05 01:40:12;;;;;;;;;;;14.80;99.90;;;;;;4986622;28;20380;-75
2022/10/05 01:42:41;;;;;;;;;;;14.80;99.90;;;;;;4986045;28;19926;-75
2022/10/05 01:45:09;;;;;;;;;;;14.80;99.90;;;;;;5001930;28;20434;-74
2022/10/05 01:47:50;;;;;;;;;;;14.80;99.90;;;;;;4987576;28;19926;-75
2022/10/05 01:50:40;;;;;;;;;;;14.80;99.90;;;;;;4987657;28;19925;-76
2022/10/05 01:53:22;;;;;;;;;;;14.80;99.90;;;;;;4986054;28;19926;-75
2022/10/05 01:55:55;;;;;;;;;;;14.70;99.90;;;;;;4967648;28;20377;-75
2022/10/05 01:58:26;;;;;;;;;;;14.70;99.90;;;;;;4967826;28;19926;-74
2022/10/05 02:00:51;;;;;;;;;;;14.70;99.90;;;;;;4966427;28;19930;-76
2022/10/05 02:03:19;;;;;;;;;;;14.70;99.90;;;;;;4967685;28;20017;-74
2022/10/05 02:05:54;;;;;;;;;;;14.70;99.90;;;;;;4974271;28;19921;-74
2022/10/05 02:08:26;;;;;;;;;;;14.70;99.90;;;;;;4985972;28;19929;-75
2022/10/05 02:10:51;;;;;;;;;;;14.80;99.90;;;;;;4987215;28;19930;-75
2022/10/05 02:13:21;;;;;;;;;;;14.80;99.90;;;;;;4986940;28;19930;-76
2022/10/05 02:15:50;;;;;;;;;;;14.80;99.90;;;;;;4986643;28;20372;-75
2022/10/05 02:18:20;;;;;;;;;;;14.80;99.90;;;;;;4987523;28;19976;-74
2022/10/05 02:20:46;;;;;;;;;;;14.70;99.90;;;;;;4987013;28;19925;-75
2022/10/05 02:23:17;;;;;;;;;;;14.80;99.90;;;;;;4987084;28;20418;-74
2022/10/05 02:25:44;;;;;;;;;;;14.80;99.90;;;;;;4986516;28;19926;-74
2022/10/05 02:28:29;;;;;;;;;;;14.80;99.90;;;;;;4986972;28;19925;-74
2022/10/05 02:31:00;;;;;;;;;;;14.80;99.90;;;;;;4986705;28;19948;-75
2022/10/05 02:33:26;;;;;;;;;;;14.80;99.90;;;;;;4986853;28;19926;-75
2022/10/05 02:35:52;;;;;;;;;;;14.80;99.90;;;;;;4986398;28;19930;-74
2022/10/05 02:38:26;;;;;;;;;;;14.80;99.90;;;;;;4985375;28;19951;-74
2022/10/05 02:41:12;;;;;;;;;;;14.80;99.90;;;;;;4986700;28;20174;-75
2022/10/05 02:43:38;;;;;;;;;;;14.80;99.90;;;;;;4985690;28;19980;-76
2022/10/05 02:46:22;;;;;;;;;;;14.80;99.90;;;;;;4986480;28;19972;-76
2022/10/05 02:48:57;;;;;;;;;;;14.80;99.90;;;;;;4985231;28;19926;-75
2022/10/05 02:51:24;;;;;;;;;;;14.90;99.90;;;;;;4986438;28;19957;-75
2022/10/05 02:53:56;;;;;;;;;;;14.80;99.90;;;;;;4985705;28;19937;-75
2022/10/05 02:56:39;;;;;;;;;;;14.80;99.90;;;;;;4974951;28;19930;-75
2022/10/05 02:59:08;;;;;;;;;;;14.80;99.90;;;;;;4964508;28;19926;-75
2022/10/05 03:01:58;;;;;;;;;;;14.80;99.90;;;;;;4985205;28;20446;-74
2022/10/05 03:04:43;;;;;;;;;;;14.80;99.90;;;;;;4984763;28;19980;-74
2022/10/05 03:07:22;;;;;;;;;;;14.90;99.90;;;;;;4985394;28;20328;-75
2022/10/05 03:09:55;;;;;;;;;;;14.90;99.90;;;;;;4984208;28;19952;-75
2022/10/05 03:12:39;;;;;;;;;;;14.90;99.90;;;;;;4986207;28;19926;-75
2022/10/05 03:15:17;;;;;;;;;;;14.80;99.90;;;;;;4981533;28;19930;-74
2022/10/05 03:18:01;;;;;;;;;;;14.80;99.90;;;;;;4985889;28;20339;-75
2022/10/05 03:20:33;;;;;;;;;;;14.80;99.90;;;;;;4970700;28;19937;-74
2022/10/05 03:23:03;;;;;;;;;;;14.80;99.90;;;;;;4984890;28;19926;-75
2022/10/05 03:25:38;;;;;;;;;;;14.80;99.90;;;;;;4983726;28;20360;-74
2022/10/05 03:28:10;;;;;;;;;;;14.80;99.90;;;;;;4984713;28;19933;-75
2022/10/05 03:30:47;;;;;;;;;;;14.80;99.90;;;;;;4974762;28;19926;-75
2022/10/05 03:33:18;;;;;;;;;;;14.80;99.90;;;;;;4985533;28;20674;-75
2022/10/05 03:35:44;;;;;;;;;;;14.80;99.90;;;;;;4985956;28;19933;-75
2022/10/05 03:38:09;;;;;;;;;;;14.80;99.90;;;;;;5000798;28;20350;-74
2022/10/05 03:40:57;;;;;;;;;;;14.80;99.90;;;;;;4985757;28;19926;-74
2022/10/05 03:43:22;;;;;;;;;;;14.80;99.90;;;;;;4999893;28;19934;-74
2022/10/05 03:46:00;;;;;;;;;;;14.80;99.90;;;;;;4985149;28;20277;-75
2022/10/05 03:48:32;;;;;;;;;;;14.80;99.90;;;;;;4984213;28;19933;-75
2022/10/05 03:51:03;;;;;;;;;;;14.80;99.90;;;;;;4984954;28;20063;-76
2022/10/05 03:53:32;;;;;;;;;;;14.80;99.90;;;;;;4985442;28;19937;-74
2022/10/05 03:56:07;;;;;;;;;;;14.80;99.90;;;;;;4984322;28;19926;-74
2022/10/05 03:58:40;;;;;;;;;;;14.80;99.90;;;;;;4985406;28;19980;-74
2022/10/05 04:01:09;;;;;;;;;;;14.80;99.90;;;;;;4988120;28;19971;-76
2022/10/05 04:03:37;;;;;;;;;;;14.80;99.90;;;;;;4984176;28;19933;-76
2022/10/05 04:06:08;;;;;;;;;;;14.80;99.90;;;;;;4969934;28;20445;-75
2022/10/05 04:08:38;;;;;;;;;;;14.80;99.90;;;;;;4968991;28;19926;-76
2022/10/05 04:11:07;;;;;;;;;;;14.80;99.90;;;;;;4970198;28;19926;-76
2022/10/05 04:13:36;;;;;;;;;;;14.80;99.90;;;;;;4979510;28;19926;-75
2022/10/05 04:16:16;;;;;;;;;;;14.70;99.90;;;;;;4988904;28;19980;-77
2022/10/05 04:18:44;;;;;;;;;;;14.80;99.90;;;;;;4989229;28;19930;-74
2022/10/05 04:21:12;;;;;;;;;;;14.80;99.90;;;;;;5004452;28;19933;-74
2022/10/05 04:23:41;;;;;;;;;;;14.80;99.90;;;;;;4987961;28;19926;-74
2022/10/05 04:26:13;;;;;;;;;;;14.80;99.90;;;;;;4989060;28;19926;-75
2022/10/05 04:28:45;;;;;;;;;;;14.70;99.90;;;;;;4988068;28;19976;-75
2022/10/05 04:31:14;;;;;;;;;;;14.80;99.90;;;;;;4986685;28;19929;-76
2022/10/05 04:33:42;;;;;;;;;;;14.70;99.90;;;;;;4988753;28;20104;-75
2022/10/05 04:36:12;;;;;;;;;;;14.70;99.90;;;;;;4988932;28;19926;-76
2022/10/05 04:38:43;;;;;;;;;;;14.80;99.90;;;;;;4987436;28;19925;-76
2022/10/05 04:41:18;;;;;;;;;;;14.70;99.90;;;;;;4984095;28;19926;-74
2022/10/05 04:43:44;;;;;;;;;;;14.80;99.90;;;;;;4983911;28;19933;-74
2022/10/05 04:46:36;;;;;;;;;;;14.70;99.90;;;;;;4978508;28;19930;-75
2022/10/05 04:49:23;;;;;;;;;;;14.70;99.90;;;;;;4957457;28;19934;-77
2022/10/05 04:51:49;;;;;;;;;;;14.70;99.90;;;;;;4984446;28;20491;-76
2022/10/05 04:54:33;;;;;;;;;;;14.70;99.90;;;;;;4977607;28;19926;-76
2022/10/05 04:57:00;;;;;;;;;;;14.70;99.90;;;;;;4986925;28;19926;-75
2022/10/05 04:59:44;;;;;;;;;;;14.70;99.90;;;;;;4981966;28;19976;-74
2022/10/05 05:02:19;;;;;;;;;;;14.70;99.90;;;;;;4984907;28;19981;-76
2022/10/05 05:04:47;;;;;;;;;;;14.70;99.90;;;;;;4980319;28;19925;-74
2022/10/05 05:07:26;;;;;;;;;;;14.70;99.90;;;;;;4982409;28;19937;-76
2022/10/05 05:10:01;;;;;;;;;;;14.70;99.90;;;;;;4980427;28;19941;-74
2022/10/05 05:12:41;;;;;;;;;;;14.80;99.90;;;;;;4988284;28;20293;-73
2022/10/05 05:15:21;;;;;;;;;;;14.70;99.90;;;;;;4980622;28;19989;-73
2022/10/05 05:17:51;;;;;;;;;;;14.70;99.90;;;;;;4983828;28;19926;-72
2022/10/05 05:20:32;;;;;;;;;;;14.70;99.90;;;;;;4986574;28;19988;-74
2022/10/05 05:22:57;;;;;;;;;;;14.70;99.90;;;;;;4987707;28;19925;-73
2022/10/05 05:25:42;;;;;;;;;;;14.70;99.90;;;;;;4984387;28;19957;-74
2022/10/05 05:28:11;;;;;;;;;;;14.70;99.90;;;;;;4966813;28;20024;-74
2022/10/05 05:30:53;;;;;;;;;;;14.70;99.90;;;;;;4983524;28;19932;-73
2022/10/05 05:33:28;;;;;;;;;;;14.70;99.90;;;;;;4984272;28;19926;-74
2022/10/05 05:36:11;;;;;;;;;;;14.70;99.90;;;;;;4978566;28;19926;-75
2022/10/05 05:38:44;;;;;;;;;;;14.70;99.90;;;;;;4982336;28;20277;-76
2022/10/05 05:41:28;;;;;;;;;;;14.70;99.90;;;;;;4982248;28;19953;-74
2022/10/05 05:43:57;;;;;;;;;;;14.70;99.90;;;;;;4977937;28;20388;-75
2022/10/05 05:46:27;;;;;;;;;;;14.70;99.90;;;;;;4982982;28;19932;-75
2022/10/05 05:48:54;;;;;;;;;;;14.60;99.90;;;;;;4979355;28;19973;-75
2022/10/05 05:51:27;;;;;;;;;;;14.60;99.90;;;;;;4980002;28;19937;-74
2022/10/05 05:54:05;;;;;;;;;;;14.60;99.90;;;;;;4985218;28;20395;-73
2022/10/05 05:56:36;;;;;;;;;;;14.70;99.90;;;;;;4979251;28;19973;-75
2022/10/05 05:59:01;;;;;;;;;;;14.60;99.90;;;;;;4981241;28;20458;-76
2022/10/05 06:01:30;;;;;;;;;;;14.60;99.90;;;;;;4986132;28;19926;-75
2022/10/05 06:03:55;;;;;;;;;;;14.60;99.90;;;;;;4969318;28;19969;-76
2022/10/05 06:06:23;;;;;;;;;;;14.60;99.90;;;;;;4981522;28;20701;-74
2022/10/05 06:08:55;;;;;;;;;;;14.60;99.90;;;;;;4983879;28;19973;-74
2022/10/05 06:11:29;;;;;;;;;;;14.60;99.90;;;;;;4986979;28;20118;-76
2022/10/05 06:13:58;;;;;;;;;;;14.60;99.90;;;;;;4983685;28;19926;-72
2022/10/05 06:16:35;;;;;;;;;;;14.70;99.90;;;;;;4983600;28;19933;-74
2022/10/05 06:19:07;;;;;;;;;;;14.60;99.90;;;;;;4986352;28;19926;-75
2022/10/05 06:21:41;;;;;;;;;;;14.70;99.90;;;;;;4985155;28;19925;-74
2022/10/05 06:24:07;;;;;;;;;;;14.60;99.90;;;;;;4985473;28;19926;-73
2022/10/05 06:26:51;;;;;;;;;;;14.60;99.90;;;;;;4985941;28;20756;-74
2022/10/05 06:29:19;;;;;;;;;;;14.60;99.90;;;;;;4985450;28;19926;-74
2022/10/05 06:31:48;;;;;;;;;;;14.70;99.90;;;;;;4985963;28;19926;-74
2022/10/05 06:34:22;;;;;;;;;;;14.70;99.90;;;;;;5001360;28;19926;-74
2022/10/05 06:36:50;;;;;;;;;;;14.70;99.90;;;;;;4985784;28;20009;-74
2022/10/05 06:39:21;;;;;;;;;;;14.60;99.90;;;;;;4985005;28;19926;-74
2022/10/05 06:41:53;;;;;;;;;;;14.70;99.90;;;;;;4985772;28;19926;-74
2022/10/05 06:44:41;;;;;;;;;;;14.70;99.90;;;;;;4984991;28;19973;-74
2022/10/05 06:47:27;;;;;;;;;;;14.70;99.90;;;;;;4984640;28;20396;-73
2022/10/05 06:49:52;;;;;;;;;;;14.70;99.90;;;;;;5016401;28;19929;-73
2022/10/05 06:52:23;;;;;;;;;;;14.70;99.90;;;;;;4984731;28;19929;-73
2022/10/05 06:54:49;;;;;;;;;;;14.70;99.90;;;;;;4984386;28;19929;-73
2022/10/05 06:57:28;;;;;;;;;;;14.70;99.90;;;;;;4984767;28;20454;-72
2022/10/05 07:00:20;;;;;;;;;;;14.80;99.90;;;;;;4983517;28;19926;-75
2022/10/05 07:02:52;;;;;;;;;;;14.70;99.90;;;;;;4979768;28;19934;-73
2022/10/05 07:05:32;;;;;;;;;;;14.70;99.90;;;;;;4983794;28;20385;-73
2022/10/05 07:08:04;;;;;;;;;;;14.80;99.90;;;;;;4983568;28;19974;-73
2022/10/05 07:10:41;;;;;;;;;;;14.80;99.90;;;;;;4985313;28;19937;-73
2022/10/05 07:13:24;;;;;;;;;;;14.80;99.90;;;;;;5015176;28;20107;-74
2022/10/05 07:16:16;;;;;;;;;;;14.80;99.90;;;;;;4984218;28;19926;-73
2022/10/05 07:18:44;;;;;;;;;;;14.90;99.90;;;;;;4982812;28;19963;-75
2022/10/05 07:21:10;;;;;;;;;;;14.80;99.90;;;;;;4984518;28;19925;-73
2022/10/05 07:23:46;;;;;;;;;;;14.90;99.90;;;;;;4984092;28;19925;-73
2022/10/05 07:26:15;;;;;;;;;;;14.90;99.90;;;;;;4966162;28;19930;-73
2022/10/05 07:28:48;;;;;;;;;;;14.90;99.90;;;;;;4964237;28;19937;-74
2022/10/05 07:31:46;;;;;;;;;;;14.90;99.90;;;;;;4963728;28;19926;-73
2022/10/05 07:34:17;;;;;;;;;;;14.90;99.90;;;;;;4931196;28;19952;-74
2022/10/05 07:39:32;;;;;;;;;;;15.00;99.90;;;;;;4965297;28;20340;-72
2022/10/05 07:42:07;;;;;;;;;;;15.00;99.90;;;;;;4965057;28;19926;-72
2022/10/05 07:44:37;;;;;;;;;;;15.00;99.90;;;;;;4963850;28;19926;-75
2022/10/05 07:47:05;;;;;;;;;;;15.00;99.90;;;;;;4963631;28;19930;-73
2022/10/05 07:49:40;;;;;;;;;;;15.00;99.90;;;;;;4965674;28;19969;-73
2022/10/05 07:52:18;;;;;;;;;;;15.00;99.90;;;;;;4964518;28;20230;-73
2022/10/05 07:55:02;;;;;;;;;;;15.00;99.90;;;;;;4963518;28;19926;-73
2022/10/05 07:57:46;;;;;;;;;;;15.00;99.90;;;;;;4962836;28;19953;-74
2022/10/05 08:00:17;;;;;;;;;;;15.10;99.90;;;;;;4983870;28;20295;-74
2022/10/05 08:03:01;;;;;;;;;;;15.10;99.90;;;;;;4983139;28;19930;-77
2022/10/05 08:05:29;;;;;;;;;;;15.10;99.90;;;;;;4984873;28;19926;-75
2022/10/05 08:08:01;;;;;;;;;;;15.10;99.90;;;;;;4974376;28;19926;-74
2022/10/05 08:10:26;;;;;;;;;;;15.20;99.90;;;;;;4980384;28;19926;-72
2022/10/05 08:12:52;;;;;;;;;;;15.10;99.90;;;;;;4984398;28;19936;-74
2022/10/05 08:15:20;;;;;;;;;;;15.10;99.90;;;;;;4976265;28;19968;-73
2022/10/05 08:18:04;;;;;;;;;;;15.20;99.90;;;;;;4971966;28;20361;-74
2022/10/05 08:20:48;;;;;;;;;;;15.20;99.90;;;;;;4976936;28;20001;-73
2022/10/05 08:23:17;;;;;;;;;;;15.20;99.90;;;;;;4972966;28;20400;-74
2022/10/05 08:26:01;;;;;;;;;;;15.30;99.90;;;;;;4983033;28;20013;-75
2022/10/05 08:28:32;;;;;;;;;;;15.30;99.90;;;;;;4974846;28;19926;-74
2022/10/05 08:31:07;;;;;;;;;;;15.30;99.90;;;;;;4985727;28;20013;-74
2022/10/05 08:33:53;;;;;;;;;;;15.30;99.90;;;;;;4984783;28;19926;-73
2022/10/05 08:36:22;;;;;;;;;;;15.40;99.90;;;;;;4943877;28;20258;-73
2022/10/05 08:38:50;;;;;;;;;;;15.40;99.90;;;;;;4983287;28;20402;-73
2022/10/05 08:41:45;;;;;;;;;;;15.50;99.90;;;;;;4980552;28;19980;-73
2022/10/05 08:44:49;;;;;;;;;;;15.50;99.90;;;;;;4984990;28;20295;-74
2022/10/05 08:47:20;;;;;;;;;;;15.50;99.90;;;;;;4946879;29;19927;-74
2022/10/05 08:49:51;;;;;;;;;;;15.60;99.90;;;;;;4930952;29;19934;-74
2022/10/05 08:52:17;;;;;;;;;;;15.60;99.90;;;;;;4968903;28;19926;-73
2022/10/05 08:54:42;;;;;;;;;;;15.60;99.90;;;;;;4987788;28;20424;-73
2022/10/05 08:57:08;;;;;;;;;;;15.70;99.90;;;;;;4988626;28;19926;-74
2022/10/05 08:59:36;;;;;;;;;;;15.70;99.90;;;;;;4987046;28;19926;-75
2022/10/05 09:02:05;;;;;;;;;;;15.70;99.90;;;;;;4971052;28;20047;-74
2022/10/05 09:04:30;;;;;;;;;;;15.70;99.90;;;;;;4988839;28;20020;-75
2022/10/05 09:07:15;;;;;;;;;;;15.70;99.90;;;;;;4988071;28;20020;-73
2022/10/05 09:09:59;;;;;;;;;;;15.70;99.90;;;;;;4987608;28;19934;-73
2022/10/05 09:12:43;;;;;;;;;;;15.70;99.90;;;;;;4987628;28;19926;-73
2022/10/05 09:15:20;;;;;;;;;;;15.70;99.90;;;;;;4986502;28;19926;-72
2022/10/05 09:18:06;;;;;;;;;;;15.70;99.90;;;;;;4986606;28;19953;-73
2022/10/05 09:20:37;;;;;;;;;;;15.80;99.90;;;;;;4987620;28;19926;-76
2022/10/05 09:23:09;;;;;;;;;;;15.80;99.90;;;;;;4986094;28;19937;-73
2022/10/05 09:25:55;;;;;;;;;;;15.80;99.90;;;;;;4974148;28;20020;-73
2022/10/05 09:28:39;;;;;;;;;;;15.80;99.90;;;;;;4982662;28;20443;-73
2022/10/05 09:31:13;;;;;;;;;;;15.90;99.90;;;;;;4987626;28;20029;-74
2022/10/05 09:33:57;;;;;;;;;;;15.90;99.90;;;;;;4986535;28;20394;-74
2022/10/05 09:36:23;;;;;;;;;;;15.90;99.90;;;;;;4981189;28;19937;-75
2022/10/05 09:39:04;;;;;;;;;;;15.90;99.90;;;;;;4972318;28;19932;-75
2022/10/05 09:41:48;;;;;;;;;;;15.90;99.90;;;;;;4987529;28;20384;-73
2022/10/05 09:44:26;;;;;;;;;;;16.00;99.90;;;;;;4985432;28;20384;-74
2022/10/05 09:47:10;;;;;;;;;;;16.00;99.90;;;;;;4987471;28;19953;-74
2022/10/05 09:49:39;;;;;;;;;;;16.10;99.90;;;;;;4986260;28;20340;-73
2022/10/05 09:52:10;;;;;;;;;;;16.10;99.90;;;;;;4987533;28;19926;-72
2022/10/05 09:54:51;;;;;;;;;;;16.10;99.90;;;;;;4986431;28;19972;-73
2022/10/05 09:57:29;;;;;;;;;;;16.10;99.90;;;;;;4986364;28;19926;-74
2022/10/05 10:00:14;;;;;;;;;;;16.20;99.90;;;;;;4984929;28;20739;-74
2022/10/05 10:02:58;;;;;;;;;;;16.20;99.90;;;;;;4977142;28;20396;-73
2022/10/05 10:05:23;;;;;;;;;;;16.20;99.90;;;;;;4985158;28;19926;-73
2022/10/05 10:07:54;;;;;;;;;;;16.20;99.90;;;;;;4985409;28;20300;-73
2022/10/05 10:10:38;;;;;;;;;;;16.30;99.90;;;;;;4987157;28;19984;-75
2022/10/05 10:13:12;;;;;;;;;;;16.30;99.90;;;;;;4986086;28;19926;-73
2022/10/05 10:16:00;;;;;;;;;;;16.30;99.90;;;;;;4985619;28;19951;-72
2022/10/05 10:18:35;;;;;;;;;;;16.30;99.90;;;;;;4987008;28;19933;-71
2022/10/05 10:21:05;;;;;;;;;;;16.30;99.90;;;;;;4986305;28;20072;-73
2022/10/05 10:23:41;;;;;;;;;;;16.30;99.90;;;;;;4986010;28;19926;-73
2022/10/05 10:26:12;;;;;;;;;;;16.30;99.90;;;;;;4983533;28;20427;-74
2022/10/05 10:28:47;;;;;;;;;;;16.30;99.90;;;;;;4986287;28;19953;-72
2022/10/05 10:31:25;;;;;;;;;;;16.30;99.90;;;;;;4986847;28;19965;-72
2022/10/05 10:33:56;;;;;;;;;;;16.30;99.90;;;;;;4985800;28;19980;-72
2022/10/05 10:36:22;;;;;;;;;;;16.30;99.90;;;;;;4968245;28;20407;-73
2022/10/05 10:38:47;;;;;;;;;;;16.30;99.90;;;;;;4985216;28;20032;-72
2022/10/05 10:41:28;;;;;;;;;;;16.30;99.90;;;;;;4986167;28;19926;-74
2022/10/05 10:44:09;;;;;;;;;;;16.30;99.90;;;;;;4976268;28;19925;-73
2022/10/05 10:46:48;;;;;;;;;;;16.30;99.90;;;;;;4982919;28;19925;-72
2022/10/05 10:49:20;;;;;;;;;;;16.30;99.90;;;;;;4985495;28;19953;-72
2022/10/05 10:51:46;;;;;;;;;;;16.30;99.90;;;;;;4973013;28;19926;-72
2022/10/05 10:54:37;;;;;;;;;;;16.30;99.90;;;;;;4983358;28;19930;-76
2022/10/05 10:57:09;;;;;;;;;;;16.20;99.90;;;;;;4960670;28;19926;-75
2022/10/05 10:59:53;;;;;;;;;;;16.20;99.90;;;;;;4985256;28;20016;-75
2022/10/05 11:02:27;;;;;;;;;;;16.20;99.90;;;;;;4982802;28;20017;-72
2022/10/05 11:05:02;;;;;;;;;;;16.20;99.90;;;;;;4983044;28;19925;-74
2022/10/05 11:07:33;;;;;;;;;;;16.20;99.90;;;;;;4986380;28;19926;-75
2022/10/05 11:10:11;;;;;;;;;;;16.20;99.90;;;;;;4984818;28;19971;-76
2022/10/05 11:12:47;;;;;;;;;;;16.20;99.90;;;;;;4966939;28;19933;-75
2022/10/05 11:15:22;;;;;;;;;;;16.20;99.90;;;;;;4985520;28;19934;-76
2022/10/05 11:18:00;;;;;;;;;;;16.20;99.90;;;;;;4985778;28;20339;-77
2022/10/05 11:20:28;;;;;;;;;;;16.30;99.90;;;;;;4984049;28;19972;-74
2022/10/05 11:23:02;;;;;;;;;;;16.20;99.90;;;;;;4982615;28;20475;-73
2022/10/05 11:25:43;;;;;;;;;;;16.20;99.90;;;;;;4980903;28;20025;-73
2022/10/05 11:28:14;;;;;;;;;;;16.20;99.90;;;;;;4980551;28;19985;-73
2022/10/05 11:30:51;;;;;;;;;;;16.20;99.90;;;;;;4976138;28;19945;-72
2022/10/05 11:33:32;;;;;;;;;;;16.20;99.90;;;;;;4982386;28;19933;-74
2022/10/05 11:36:20;;;;;;;;;;;16.20;99.90;;;;;;4979649;28;19933;-72
2022/10/05 11:38:47;;;;;;;;;;;16.20;99.90;;;;;;4980638;28;19985;-75
2022/10/05 11:41:28;;;;;;;;;;;16.20;99.90;;;;;;4985679;28;19933;-72
2022/10/05 11:44:18;;;;;;;;;;;16.20;99.90;;;;;;4984066;28;19930;-72
2022/10/05 11:46:46;;;;;;;;;;;16.10;99.90;;;;;;4985249;28;19926;-73
2022/10/05 11:49:17;;;;;;;;;;;16.20;99.90;;;;;;4985561;28;20070;-73
2022/10/05 11:52:01;;;;;;;;;;;16.10;99.90;;;;;;4972282;28;19926;-74
2022/10/05 11:54:36;;;;;;;;;;;16.10;99.90;;;;;;4964917;28;19932;-74
2022/10/05 11:57:07;;;;;;;;;;;16.10;99.90;;;;;;4978698;28;19926;-76
2022/10/05 11:59:36;;;;;;;;;;;16.10;99.90;;;;;;4983290;28;20025;-75
2022/10/05 12:02:03;;;;;;;;;;;16.10;99.90;;;;;;4985073;28;19925;-76
2022/10/05 12:04:35;;;;;;;;;;;16.10;99.90;;;;;;4972460;28;19950;-73
2022/10/05 12:07:03;;;;;;;;;;;16.10;99.90;;;;;;4965162;28;19926;-72
2022/10/05 12:09:37;;;;;;;;;;;16.10;99.90;;;;;;4966406;28;19926;-73
2022/10/05 12:12:25;;;;;;;;;;;16.10;99.90;;;;;;4968416;28;19945;-73
2022/10/05 12:15:14;;;;;;;;;;;16.10;99.90;;;;;;4982688;28;19934;-72
2022/10/05 12:17:39;;;;;;;;;;;16.10;99.90;;;;;;4983490;28;20426;-72
2022/10/05 12:20:14;;;;;;;;;;;16.10;99.90;;;;;;4988502;28;19977;-71
2022/10/05 12:22:45;;;;;;;;;;;16.10;99.90;;;;;;4989129;28;20064;-71
2022/10/05 12:25:18;;;;;;;;;;;16.10;99.90;;;;;;4988275;28;19925;-72
2022/10/05 12:27:45;;;;;;;;;;;16.10;99.90;;;;;;4984799;28;20012;-73
2022/10/05 12:30:12;;;;;;;;;;;16.10;99.90;;;;;;4983403;28;20471;-74
2022/10/05 12:33:13;;;;;;;;;;;16.10;99.90;;;;;;4987192;28;19926;-72
2022/10/05 12:35:51;;;;;;;;;;;16.10;99.90;;;;;;4930865;29;20393;-73
2022/10/05 12:38:36;;;;;;;;;;;16.10;99.90;;;;;;4983665;28;19926;-73
2022/10/05 12:41:06;;;;;;;;;;;16.20;99.90;;;;;;4988143;28;19933;-73
2022/10/05 12:43:37;;;;;;;;;;;16.20;99.90;;;;;;4987320;28;19930;-75
2022/10/05 12:46:22;;;;;;;;;;;16.20;99.90;;;;;;5003832;28;20029;-74
2022/10/05 12:48:51;;;;;;;;;;;16.20;99.90;;;;;;4987035;28;19973;-73
2022/10/05 12:51:17;;;;;;;;;;;16.20;99.90;;;;;;4985849;28;19937;-73
2022/10/05 12:54:03;;;;;;;;;;;16.20;99.90;;;;;;4984632;28;20366;-77
2022/10/05 12:56:47;;;;;;;;;;;16.30;99.90;;;;;;4956982;28;19930;-78
2022/10/05 12:59:23;;;;;;;;;;;16.30;99.90;;;;;;4958541;28;19926;-77
2022/10/05 13:01:54;;;;;;;;;;;16.30;99.90;;;;;;4983113;28;19926;-76
2022/10/05 13:04:23;;;;;;;;;;;16.30;99.90;;;;;;4981338;28;19977;-75
2022/10/05 13:07:07;;;;;;;;;;;16.40;99.90;;;;;;4986383;28;19980;-75
2022/10/05 13:09:51;;;;;;;;;;;16.40;99.90;;;;;;4984062;28;20538;-75
2022/10/05 13:12:24;;;;;;;;;;;16.40;99.90;;;;;;4985486;28;19926;-76
2022/10/05 13:14:54;;;;;;;;;;;16.50;99.90;;;;;;5000404;28;19933;-76
2022/10/05 13:17:26;;;;;;;;;;;16.50;99.90;;;;;;4981668;28;19930;-75
2022/10/05 13:19:56;;;;;;;;;;;16.50;99.90;;;;;;4979092;28;19984;-76
2022/10/05 13:22:26;;;;;;;;;;;16.50;99.90;;;;;;4982721;28;19930;-81
2022/10/05 13:24:59;;;;;;;;;;;16.60;99.90;;;;;;4985997;28;20048;-77
2022/10/05 13:27:29;;;;;;;;;;;16.60;99.90;;;;;;4976909;28;19985;-77
2022/10/05 13:29:57;;;;;;;;;;;16.60;99.90;;;;;;4973948;28;19934;-77
2022/10/05 13:32:24;;;;;;;;;;;16.60;99.90;;;;;;4985632;28;19930;-77
2022/10/05 13:34:58;;;;;;;;;;;16.60;99.90;;;;;;4975289;28;19929;-78
2022/10/05 13:37:39;;;;;;;;;;;16.70;99.90;;;;;;4980845;28;19930;-80
2022/10/05 13:40:23;;;;;;;;;;;16.60;99.90;;;;;;4982901;28;19938;-77
2022/10/05 13:42:58;;;;;;;;;;;16.70;99.90;;;;;;4958304;28;19934;-79
2022/10/05 13:45:28;;;;;;;;;;;16.70;99.90;;;;;;4979464;28;19968;-77
2022/10/05 13:48:01;;;;;;;;;;;16.70;99.90;;;;;;4984651;28;19925;-75
2022/10/05 13:50:41;;;;;;;;;;;16.80;99.90;;;;;;4984226;28;20361;-77
2022/10/05 13:53:25;;;;;;;;;;;16.80;99.90;;;;;;4975764;28;19940;-76
2022/10/05 13:55:58;;;;;;;;;;;16.80;99.90;;;;;;4977204;28;20431;-76
2022/10/05 13:58:33;;;;;;;;;;;16.80;99.90;;;;;;4977843;28;19929;-77
2022/10/05 14:01:01;;;;;;;;;;;16.70;99.90;;;;;;4983866;28;20321;-77
2022/10/05 14:03:29;;;;;;;;;;;16.70;99.90;;;;;;4974934;28;19967;-76
2022/10/05 14:05:56;;;;;;;;;;;16.70;99.90;;;;;;4984266;28;19933;-76
2022/10/05 14:08:24;;;;;;;;;;;16.70;99.90;;;;;;4984381;28;19941;-76
2022/10/05 14:10:50;;;;;;;;;;;16.70;99.90;;;;;;4981933;28;19988;-77
2022/10/05 14:13:15;;;;;;;;;;;16.70;99.90;;;;;;4982332;28;20012;-75
2022/10/05 14:15:53;;;;;;;;;;;16.70;99.90;;;;;;4997387;28;19926;-80
2022/10/05 14:18:23;;;;;;;;;;;16.60;99.90;;;;;;4982033;28;19926;-75
2022/10/05 14:20:59;;;;;;;;;;;16.60;99.90;;;;;;4980392;28;19929;-75
2022/10/05 14:23:26;;;;;;;;;;;16.60;99.90;;;;;;4980984;28;19932;-75
2022/10/05 14:28:12;;;;;;;2.53;1.90;;;16.60;99.90;;;;;;5080913;27;21000;-73
2022/10/05 14:30:38;;;;;;;4.10;1.92;;;16.60;99.90;;;;;;5080716;28;20052;-73
2022/10/05 14:33:04;;;;;;;3.00;1.88;;;16.60;99.90;;;;;;5081051;28;20051;-72
2022/10/05 14:35:44;;;;;;;2.40;2.20;;;16.50;99.90;;;;;;5080269;28;20695;-75
2022/10/05 14:38:30;;;;;;;5.53;2.85;;;16.60;99.90;;;;;;5079425;28;20072;-76
2022/10/05 14:41:26;;;;;;;6.30;2.75;;;16.60;99.90;;;;;;5077540;28;20040;-78
2022/10/05 14:44:09;;;;;;;4.85;2.28;;;16.60;99.90;;;;;;5079322;28;20146;-76
2022/10/05 14:46:36;;;;;;;5.18;2.55;;;16.60;99.90;;;;;;5079386;28;20048;-77
2022/10/05 14:49:34;;;;;;;4.22;2.22;;;16.50;99.90;;;;;;5080189;28;20044;-76
2022/10/05 14:52:33;;;;;;;4.75;2.65;;;16.60;99.90;;;;;;5080009;28;20103;-76
2022/10/05 14:55:42;;;;;;;3.08;2.22;;;16.60;99.90;;;;;;5062831;28;20129;-77
2022/10/05 14:58:47;;;;;;;3.83;2.47;;;16.60;99.90;;;;;;5015249;28;20041;-78
2022/10/05 15:01:30;;;;;;;2.92;2.53;;;16.60;99.90;;;;;;5079460;28;20068;-77